sensor_id;sensor_type;location;lat;lon;timestamp;P1;durP1;ratioP1;P2;durP2;ratioP2
22924;SDS011;11628;51.072;3.712;2022-12-13T00:00:40;50.72;;;29.85;;
22924;SDS011;11628;51.072;3.712;2022-12-13T00:03:06;50.13;;;30.42;;
22924;SDS011;11628;51.072;3.712;2022-12-13T00:05:32;49.33;;;31.10;;
22924;SDS011;11628;51.072;3.712;2022-12-13T00:07:59;50.88;;;30.27;;
22924;SDS011;11628;51.072;3.712;2022-12-13T00:10:25;50.35;;;30.27;;
22924;SDS011;11628;51.072;3.712;2022-12-13T00:12:51;53.88;;;32.15;;
22924;SDS011;11628;51.072;3.712;2022-12-13T00:15:17;48.42;;;29.75;;
22924;SDS011;11628;51.072;3.712;2022-12-13T00:17:43;51.70;;;29.08;;
22924;SDS011;11628;51.072;3.712;2022-12-13T00:20:09;49.90;;;30.15;;
22924;SDS011;11628;51.072;3.712;2022-12-13T00:22:36;50.03;;;30.35;;
22924;SDS011;11628;51.072;3.712;2022-12-13T00:25:02;52.30;;;31.00;;
22924;SDS011;11628;51.072;3.712;2022-12-13T00:27:29;47.58;;;29.58;;
22924;SDS011;11628;51.072;3.712;2022-12-13T00:29:54;48.42;;;30.27;;
22924;SDS011;11628;51.072;3.712;2022-12-13T00:32:20;51.30;;;31.42;;
22924;SDS011;11628;51.072;3.712;2022-12-13T00:34:46;50.25;;;31.58;;
22924;SDS011;11628;51.072;3.712;2022-12-13T00:37:12;49.13;;;30.60;;
22924;SDS011;11628;51.072;3.712;2022-12-13T00:39:37;48.72;;;29.77;;
22924;SDS011;11628;51.072;3.712;2022-12-13T00:42:03;45.60;;;28.85;;
22924;SDS011;11628;51.072;3.712;2022-12-13T00:44:29;49.80;;;29.25;;
22924;SDS011;11628;51.072;3.712;2022-12-13T00:46:55;45.97;;;28.58;;
22924;SDS011;11628;51.072;3.712;2022-12-13T00:49:21;48.80;;;30.27;;
22924;SDS011;11628;51.072;3.712;2022-12-13T00:51:47;52.55;;;29.38;;
22924;SDS011;11628;51.072;3.712;2022-12-13T00:54:13;49.35;;;30.15;;
22924;SDS011;11628;51.072;3.712;2022-12-13T00:56:39;46.80;;;28.40;;
22924;SDS011;11628;51.072;3.712;2022-12-13T00:59:05;49.97;;;28.45;;
22924;SDS011;11628;51.072;3.712;2022-12-13T01:01:32;48.35;;;28.95;;
22924;SDS011;11628;51.072;3.712;2022-12-13T01:04:01;46.47;;;27.40;;
22924;SDS011;11628;51.072;3.712;2022-12-13T01:06:40;49.17;;;29.42;;
22924;SDS011;11628;51.072;3.712;2022-12-13T01:09:11;47.10;;;28.25;;
22924;SDS011;11628;51.072;3.712;2022-12-13T01:11:41;43.65;;;27.02;;
22924;SDS011;11628;51.072;3.712;2022-12-13T01:14:07;45.72;;;27.92;;
22924;SDS011;11628;51.072;3.712;2022-12-13T01:16:33;50.22;;;28.85;;
22924;SDS011;11628;51.072;3.712;2022-12-13T01:18:58;42.78;;;27.67;;
22924;SDS011;11628;51.072;3.712;2022-12-13T01:21:24;48.25;;;28.15;;
22924;SDS011;11628;51.072;3.712;2022-12-13T01:23:50;43.63;;;25.90;;
22924;SDS011;11628;51.072;3.712;2022-12-13T01:26:17;47.65;;;27.42;;
22924;SDS011;11628;51.072;3.712;2022-12-13T01:28:44;45.92;;;26.58;;
22924;SDS011;11628;51.072;3.712;2022-12-13T01:31:12;41.30;;;26.67;;
22924;SDS011;11628;51.072;3.712;2022-12-13T01:33:39;42.65;;;25.98;;
22924;SDS011;11628;51.072;3.712;2022-12-13T01:36:06;45.38;;;27.45;;
22924;SDS011;11628;51.072;3.712;2022-12-13T01:38:34;43.70;;;27.02;;
22924;SDS011;11628;51.072;3.712;2022-12-13T01:41:00;39.72;;;24.98;;
22924;SDS011;11628;51.072;3.712;2022-12-13T01:45:54;37.90;;;24.95;;
22924;SDS011;11628;51.072;3.712;2022-12-13T01:48:21;43.58;;;26.00;;
22924;SDS011;11628;51.072;3.712;2022-12-13T01:50:51;42.88;;;25.55;;
22924;SDS011;11628;51.072;3.712;2022-12-13T01:53:23;38.33;;;24.70;;
22924;SDS011;11628;51.072;3.712;2022-12-13T01:55:53;39.38;;;25.65;;
22924;SDS011;11628;51.072;3.712;2022-12-13T01:58:24;42.40;;;24.85;;
22924;SDS011;11628;51.072;3.712;2022-12-13T02:00:50;40.83;;;24.90;;
22924;SDS011;11628;51.072;3.712;2022-12-13T02:03:16;37.95;;;24.52;;
22924;SDS011;11628;51.072;3.712;2022-12-13T02:05:47;38.85;;;24.20;;
22924;SDS011;11628;51.072;3.712;2022-12-13T02:08:27;42.10;;;24.80;;
22924;SDS011;11628;51.072;3.712;2022-12-13T02:10:53;38.65;;;23.92;;
22924;SDS011;11628;51.072;3.712;2022-12-13T02:13:20;39.92;;;24.48;;
22924;SDS011;11628;51.072;3.712;2022-12-13T02:15:52;40.45;;;24.67;;
22924;SDS011;11628;51.072;3.712;2022-12-13T02:24:21;44.22;;;25.75;;
22924;SDS011;11628;51.072;3.712;2022-12-13T02:27:06;41.03;;;26.02;;
22924;SDS011;11628;51.072;3.712;2022-12-13T02:32:49;43.88;;;26.52;;
22924;SDS011;11628;51.072;3.712;2022-12-13T02:35:46;38.28;;;25.45;;
22924;SDS011;11628;51.072;3.712;2022-12-13T02:38:35;43.22;;;26.08;;
22924;SDS011;11628;51.072;3.712;2022-12-13T02:46:42;45.47;;;26.35;;
22924;SDS011;11628;51.072;3.712;2022-12-13T02:49:16;43.05;;;26.23;;
22924;SDS011;11628;51.072;3.712;2022-12-13T02:51:43;43.75;;;27.23;;
22924;SDS011;11628;51.072;3.712;2022-12-13T02:54:09;41.47;;;27.02;;
22924;SDS011;11628;51.072;3.712;2022-12-13T02:56:35;45.17;;;27.90;;
22924;SDS011;11628;51.072;3.712;2022-12-13T02:59:02;47.10;;;26.80;;
22924;SDS011;11628;51.072;3.712;2022-12-13T03:01:44;42.08;;;26.60;;
22924;SDS011;11628;51.072;3.712;2022-12-13T03:07:12;45.40;;;28.00;;
22924;SDS011;11628;51.072;3.712;2022-12-13T03:09:47;45.28;;;27.88;;
22924;SDS011;11628;51.072;3.712;2022-12-13T03:18:17;42.63;;;27.25;;
22924;SDS011;11628;51.072;3.712;2022-12-13T03:20:46;43.95;;;27.33;;
22924;SDS011;11628;51.072;3.712;2022-12-13T03:23:17;42.70;;;27.63;;
22924;SDS011;11628;51.072;3.712;2022-12-13T03:25:44;49.60;;;29.05;;
22924;SDS011;11628;51.072;3.712;2022-12-13T03:28:13;44.55;;;28.17;;
22924;SDS011;11628;51.072;3.712;2022-12-13T03:30:39;42.72;;;28.08;;
22924;SDS011;11628;51.072;3.712;2022-12-13T03:33:05;43.80;;;28.42;;
22924;SDS011;11628;51.072;3.712;2022-12-13T03:35:31;42.22;;;28.40;;
22924;SDS011;11628;51.072;3.712;2022-12-13T03:37:57;43.45;;;28.65;;
22924;SDS011;11628;51.072;3.712;2022-12-13T03:40:25;43.10;;;28.52;;
22924;SDS011;11628;51.072;3.712;2022-12-13T03:42:53;44.47;;;28.30;;
22924;SDS011;11628;51.072;3.712;2022-12-13T03:45:19;48.58;;;27.98;;
22924;SDS011;11628;51.072;3.712;2022-12-13T03:47:45;43.22;;;28.75;;
22924;SDS011;11628;51.072;3.712;2022-12-13T03:50:11;45.55;;;28.85;;
22924;SDS011;11628;51.072;3.712;2022-12-13T03:52:36;48.60;;;29.25;;
22924;SDS011;11628;51.072;3.712;2022-12-13T03:55:02;45.78;;;29.13;;
22924;SDS011;11628;51.072;3.712;2022-12-13T03:57:28;45.05;;;29.10;;
22924;SDS011;11628;51.072;3.712;2022-12-13T03:59:54;47.30;;;29.35;;
22924;SDS011;11628;51.072;3.712;2022-12-13T04:02:20;44.28;;;27.52;;
22924;SDS011;11628;51.072;3.712;2022-12-13T04:04:46;45.75;;;28.27;;
22924;SDS011;11628;51.072;3.712;2022-12-13T04:07:11;46.35;;;28.92;;
22924;SDS011;11628;51.072;3.712;2022-12-13T04:09:37;44.67;;;27.65;;
22924;SDS011;11628;51.072;3.712;2022-12-13T04:12:02;41.70;;;26.40;;
22924;SDS011;11628;51.072;3.712;2022-12-13T04:14:47;43.85;;;27.05;;
22924;SDS011;11628;51.072;3.712;2022-12-13T04:17:12;45.78;;;28.08;;
22924;SDS011;11628;51.072;3.712;2022-12-13T04:19:38;40.22;;;26.95;;
22924;SDS011;11628;51.072;3.712;2022-12-13T04:22:04;39.35;;;25.35;;
22924;SDS011;11628;51.072;3.712;2022-12-13T04:24:29;40.88;;;25.83;;
22924;SDS011;11628;51.072;3.712;2022-12-13T04:26:55;45.05;;;26.70;;
22924;SDS011;11628;51.072;3.712;2022-12-13T04:29:21;39.45;;;26.67;;
22924;SDS011;11628;51.072;3.712;2022-12-13T04:31:47;41.80;;;25.58;;
22924;SDS011;11628;51.072;3.712;2022-12-13T04:34:13;42.33;;;26.25;;
22924;SDS011;11628;51.072;3.712;2022-12-13T04:36:39;40.53;;;25.88;;
22924;SDS011;11628;51.072;3.712;2022-12-13T04:39:06;44.58;;;27.95;;
22924;SDS011;11628;51.072;3.712;2022-12-13T04:41:35;44.20;;;26.98;;
22924;SDS011;11628;51.072;3.712;2022-12-13T04:44:02;45.00;;;27.45;;
22924;SDS011;11628;51.072;3.712;2022-12-13T04:46:29;48.28;;;27.52;;
22924;SDS011;11628;51.072;3.712;2022-12-13T04:48:55;42.15;;;27.25;;
22924;SDS011;11628;51.072;3.712;2022-12-13T04:51:21;42.03;;;26.50;;
22924;SDS011;11628;51.072;3.712;2022-12-13T04:53:46;41.28;;;27.13;;
22924;SDS011;11628;51.072;3.712;2022-12-13T04:56:12;40.50;;;25.02;;
22924;SDS011;11628;51.072;3.712;2022-12-13T04:58:38;35.28;;;25.50;;
22924;SDS011;11628;51.072;3.712;2022-12-13T05:01:07;43.95;;;27.77;;
22924;SDS011;11628;51.072;3.712;2022-12-13T05:03:35;42.42;;;26.63;;
22924;SDS011;11628;51.072;3.712;2022-12-13T05:06:05;42.78;;;26.63;;
22924;SDS011;11628;51.072;3.712;2022-12-13T05:08:31;41.25;;;25.98;;
22924;SDS011;11628;51.072;3.712;2022-12-13T05:10:57;38.72;;;26.40;;
22924;SDS011;11628;51.072;3.712;2022-12-13T05:13:23;36.80;;;24.25;;
22924;SDS011;11628;51.072;3.712;2022-12-13T05:15:56;39.17;;;26.13;;
22924;SDS011;11628;51.072;3.712;2022-12-13T05:18:22;42.08;;;25.30;;
22924;SDS011;11628;51.072;3.712;2022-12-13T05:20:49;41.58;;;24.85;;
22924;SDS011;11628;51.072;3.712;2022-12-13T05:23:18;41.75;;;25.77;;
22924;SDS011;11628;51.072;3.712;2022-12-13T05:25:45;37.97;;;25.08;;
22924;SDS011;11628;51.072;3.712;2022-12-13T05:28:11;35.17;;;23.65;;
22924;SDS011;11628;51.072;3.712;2022-12-13T05:30:37;37.28;;;24.15;;
22924;SDS011;11628;51.072;3.712;2022-12-13T05:33:04;35.80;;;23.23;;
22924;SDS011;11628;51.072;3.712;2022-12-13T05:35:29;32.60;;;22.60;;
22924;SDS011;11628;51.072;3.712;2022-12-13T05:37:55;33.17;;;22.10;;
22924;SDS011;11628;51.072;3.712;2022-12-13T05:40:21;36.38;;;22.45;;
22924;SDS011;11628;51.072;3.712;2022-12-13T05:42:48;32.70;;;21.20;;
22924;SDS011;11628;51.072;3.712;2022-12-13T05:45:14;34.70;;;22.30;;
22924;SDS011;11628;51.072;3.712;2022-12-13T05:47:41;35.03;;;22.85;;
22924;SDS011;11628;51.072;3.712;2022-12-13T05:50:07;35.60;;;22.38;;
22924;SDS011;11628;51.072;3.712;2022-12-13T05:52:34;36.42;;;22.83;;
22924;SDS011;11628;51.072;3.712;2022-12-13T05:55:00;38.65;;;25.00;;
22924;SDS011;11628;51.072;3.712;2022-12-13T05:57:26;35.45;;;22.40;;
22924;SDS011;11628;51.072;3.712;2022-12-13T05:59:52;34.35;;;22.75;;
22924;SDS011;11628;51.072;3.712;2022-12-13T06:02:17;34.95;;;23.05;;
22924;SDS011;11628;51.072;3.712;2022-12-13T06:04:43;33.55;;;22.88;;
22924;SDS011;11628;51.072;3.712;2022-12-13T06:07:09;39.15;;;25.10;;
22924;SDS011;11628;51.072;3.712;2022-12-13T06:09:35;46.15;;;30.33;;
22924;SDS011;11628;51.072;3.712;2022-12-13T06:12:01;34.00;;;23.45;;
22924;SDS011;11628;51.072;3.712;2022-12-13T06:14:27;34.10;;;23.25;;
22924;SDS011;11628;51.072;3.712;2022-12-13T06:16:53;32.90;;;22.95;;
22924;SDS011;11628;51.072;3.712;2022-12-13T06:19:19;35.08;;;22.98;;
22924;SDS011;11628;51.072;3.712;2022-12-13T06:21:48;34.67;;;23.48;;
22924;SDS011;11628;51.072;3.712;2022-12-13T06:24:15;32.70;;;22.67;;
22924;SDS011;11628;51.072;3.712;2022-12-13T06:26:42;39.08;;;23.73;;
22924;SDS011;11628;51.072;3.712;2022-12-13T06:29:08;35.72;;;23.38;;
22924;SDS011;11628;51.072;3.712;2022-12-13T06:31:34;32.78;;;22.55;;
22924;SDS011;11628;51.072;3.712;2022-12-13T06:34:01;36.50;;;23.50;;
22924;SDS011;11628;51.072;3.712;2022-12-13T06:36:29;33.50;;;23.02;;
22924;SDS011;11628;51.072;3.712;2022-12-13T06:38:55;34.47;;;23.80;;
22924;SDS011;11628;51.072;3.712;2022-12-13T06:41:21;31.90;;;22.92;;
22924;SDS011;11628;51.072;3.712;2022-12-13T06:43:47;34.30;;;24.70;;
22924;SDS011;11628;51.072;3.712;2022-12-13T06:46:13;38.03;;;22.88;;
22924;SDS011;11628;51.072;3.712;2022-12-13T06:48:39;34.63;;;23.35;;
22924;SDS011;11628;51.072;3.712;2022-12-13T06:51:06;34.72;;;23.02;;
22924;SDS011;11628;51.072;3.712;2022-12-13T06:53:33;34.80;;;22.73;;
22924;SDS011;11628;51.072;3.712;2022-12-13T06:56:04;34.15;;;23.10;;
22924;SDS011;11628;51.072;3.712;2022-12-13T06:58:32;35.92;;;23.33;;
22924;SDS011;11628;51.072;3.712;2022-12-13T07:01:02;33.67;;;22.85;;
22924;SDS011;11628;51.072;3.712;2022-12-13T07:03:30;33.88;;;22.65;;
22924;SDS011;11628;51.072;3.712;2022-12-13T07:06:02;39.75;;;26.30;;
22924;SDS011;11628;51.072;3.712;2022-12-13T07:10:56;33.17;;;22.42;;
22924;SDS011;11628;51.072;3.712;2022-12-13T07:13:22;33.95;;;22.02;;
22924;SDS011;11628;51.072;3.712;2022-12-13T07:15:48;36.97;;;22.27;;
22924;SDS011;11628;51.072;3.712;2022-12-13T07:18:14;32.65;;;22.15;;
22924;SDS011;11628;51.072;3.712;2022-12-13T07:20:41;35.58;;;22.73;;
22924;SDS011;11628;51.072;3.712;2022-12-13T07:23:07;32.20;;;21.90;;
22924;SDS011;11628;51.072;3.712;2022-12-13T07:25:33;33.90;;;21.88;;
22924;SDS011;11628;51.072;3.712;2022-12-13T07:27:59;34.65;;;23.13;;
22924;SDS011;11628;51.072;3.712;2022-12-13T07:30:27;33.58;;;22.08;;
22924;SDS011;11628;51.072;3.712;2022-12-13T07:32:54;32.17;;;21.92;;
22924;SDS011;11628;51.072;3.712;2022-12-13T07:35:19;37.30;;;24.05;;
22924;SDS011;11628;51.072;3.712;2022-12-13T07:37:45;39.72;;;23.27;;
22924;SDS011;11628;51.072;3.712;2022-12-13T07:40:11;33.70;;;22.05;;
22924;SDS011;11628;51.072;3.712;2022-12-13T07:42:36;35.15;;;22.58;;
22924;SDS011;11628;51.072;3.712;2022-12-13T07:45:02;34.65;;;23.45;;
22924;SDS011;11628;51.072;3.712;2022-12-13T07:47:29;39.10;;;27.23;;
22924;SDS011;11628;51.072;3.712;2022-12-13T07:49:56;30.30;;;22.67;;
22924;SDS011;11628;51.072;3.712;2022-12-13T07:52:22;37.45;;;23.73;;
22924;SDS011;11628;51.072;3.712;2022-12-13T07:54:50;32.10;;;22.95;;
22924;SDS011;11628;51.072;3.712;2022-12-13T07:57:16;39.85;;;23.35;;
22924;SDS011;11628;51.072;3.712;2022-12-13T07:59:41;36.50;;;22.85;;
22924;SDS011;11628;51.072;3.712;2022-12-13T08:02:11;35.88;;;23.15;;
22924;SDS011;11628;51.072;3.712;2022-12-13T08:04:39;34.47;;;22.92;;
22924;SDS011;11628;51.072;3.712;2022-12-13T08:07:07;33.45;;;23.15;;
22924;SDS011;11628;51.072;3.712;2022-12-13T08:09:33;36.60;;;24.10;;
22924;SDS011;11628;51.072;3.712;2022-12-13T08:11:59;33.35;;;23.35;;
22924;SDS011;11628;51.072;3.712;2022-12-13T08:14:25;34.55;;;23.15;;
22924;SDS011;11628;51.072;3.712;2022-12-13T08:16:51;37.15;;;24.27;;
22924;SDS011;11628;51.072;3.712;2022-12-13T08:19:17;36.35;;;24.55;;
22924;SDS011;11628;51.072;3.712;2022-12-13T08:21:43;34.65;;;23.05;;
22924;SDS011;11628;51.072;3.712;2022-12-13T08:24:08;34.47;;;22.55;;
22924;SDS011;11628;51.072;3.712;2022-12-13T08:26:34;32.40;;;22.13;;
22924;SDS011;11628;51.072;3.712;2022-12-13T08:29:01;33.47;;;21.45;;
22924;SDS011;11628;51.072;3.712;2022-12-13T08:31:28;29.50;;;20.50;;
22924;SDS011;11628;51.072;3.712;2022-12-13T08:33:56;29.27;;;19.75;;
22924;SDS011;11628;51.072;3.712;2022-12-13T08:36:22;26.50;;;19.13;;
22924;SDS011;11628;51.072;3.712;2022-12-13T08:38:53;28.60;;;19.10;;
22924;SDS011;11628;51.072;3.712;2022-12-13T08:41:20;27.55;;;19.42;;
22924;SDS011;11628;51.072;3.712;2022-12-13T08:43:46;27.30;;;17.85;;
22924;SDS011;11628;51.072;3.712;2022-12-13T08:46:12;26.70;;;18.17;;
22924;SDS011;11628;51.072;3.712;2022-12-13T08:48:38;23.63;;;17.17;;
22924;SDS011;11628;51.072;3.712;2022-12-13T08:51:05;24.17;;;17.85;;
22924;SDS011;11628;51.072;3.712;2022-12-13T08:53:32;24.55;;;18.05;;
22924;SDS011;11628;51.072;3.712;2022-12-13T08:59:21;29.42;;;19.27;;
22924;SDS011;11628;51.072;3.712;2022-12-13T09:01:49;24.02;;;18.38;;
22924;SDS011;11628;51.072;3.712;2022-12-13T09:04:17;26.05;;;17.90;;
22924;SDS011;11628;51.072;3.712;2022-12-13T09:06:43;27.63;;;18.65;;
22924;SDS011;11628;51.072;3.712;2022-12-13T09:09:11;25.73;;;18.40;;
22924;SDS011;11628;51.072;3.712;2022-12-13T09:11:37;31.27;;;19.73;;
22924;SDS011;11628;51.072;3.712;2022-12-13T09:14:05;27.70;;;21.23;;
22924;SDS011;11628;51.072;3.712;2022-12-13T09:16:31;26.73;;;19.77;;
22924;SDS011;11628;51.072;3.712;2022-12-13T09:19:00;26.23;;;18.05;;
22924;SDS011;11628;51.072;3.712;2022-12-13T09:21:27;25.52;;;18.98;;
22924;SDS011;11628;51.072;3.712;2022-12-13T09:23:53;25.15;;;18.65;;
22924;SDS011;11628;51.072;3.712;2022-12-13T09:26:19;26.30;;;19.55;;
22924;SDS011;11628;51.072;3.712;2022-12-13T09:28:45;33.00;;;19.27;;
22924;SDS011;11628;51.072;3.712;2022-12-13T09:31:15;29.45;;;19.20;;
22924;SDS011;11628;51.072;3.712;2022-12-13T09:33:42;26.85;;;19.02;;
22924;SDS011;11628;51.072;3.712;2022-12-13T09:36:13;29.30;;;19.33;;
22924;SDS011;11628;51.072;3.712;2022-12-13T09:38:40;27.88;;;19.42;;
22924;SDS011;11628;51.072;3.712;2022-12-13T09:44:03;32.92;;;20.02;;
22924;SDS011;11628;51.072;3.712;2022-12-13T09:46:37;30.00;;;19.83;;
22924;SDS011;11628;51.072;3.712;2022-12-13T09:49:08;29.48;;;20.23;;
22924;SDS011;11628;51.072;3.712;2022-12-13T09:51:38;28.05;;;19.75;;
22924;SDS011;11628;51.072;3.712;2022-12-13T09:54:04;31.48;;;20.75;;
22924;SDS011;11628;51.072;3.712;2022-12-13T09:56:30;30.45;;;19.48;;
22924;SDS011;11628;51.072;3.712;2022-12-13T09:58:57;25.80;;;18.27;;
22924;SDS011;11628;51.072;3.712;2022-12-13T10:01:23;24.13;;;18.67;;
22924;SDS011;11628;51.072;3.712;2022-12-13T10:03:50;26.70;;;18.67;;
22924;SDS011;11628;51.072;3.712;2022-12-13T10:06:21;27.38;;;18.88;;
22924;SDS011;11628;51.072;3.712;2022-12-13T10:08:55;25.05;;;18.38;;
22924;SDS011;11628;51.072;3.712;2022-12-13T10:11:24;23.05;;;17.63;;
22924;SDS011;11628;51.072;3.712;2022-12-13T10:14:11;26.23;;;18.95;;
22924;SDS011;11628;51.072;3.712;2022-12-13T10:16:45;26.23;;;17.30;;
22924;SDS011;11628;51.072;3.712;2022-12-13T10:19:56;26.08;;;18.92;;
22924;SDS011;11628;51.072;3.712;2022-12-13T10:22:10;26.20;;;19.10;;
22924;SDS011;11628;51.072;3.712;2022-12-13T10:24:51;24.08;;;17.15;;
22924;SDS011;11628;51.072;3.712;2022-12-13T10:32:51;25.30;;;17.10;;
22924;SDS011;11628;51.072;3.712;2022-12-13T10:35:28;22.40;;;16.85;;
22924;SDS011;11628;51.072;3.712;2022-12-13T10:38:01;26.20;;;17.27;;
22924;SDS011;11628;51.072;3.712;2022-12-13T10:40:47;23.92;;;16.95;;
22924;SDS011;11628;51.072;3.712;2022-12-13T10:43:16;23.10;;;17.30;;
22924;SDS011;11628;51.072;3.712;2022-12-13T10:51:15;20.17;;;16.42;;
22924;SDS011;11628;51.072;3.712;2022-12-13T10:53:45;22.10;;;16.67;;
22924;SDS011;11628;51.072;3.712;2022-12-13T10:56:13;25.40;;;17.55;;
22924;SDS011;11628;51.072;3.712;2022-12-13T10:58:42;24.95;;;17.45;;
22924;SDS011;11628;51.072;3.712;2022-12-13T11:03:42;23.80;;;18.38;;
22924;SDS011;11628;51.072;3.712;2022-12-13T11:06:19;25.55;;;18.02;;
22924;SDS011;11628;51.072;3.712;2022-12-13T11:08:47;20.98;;;17.08;;
22924;SDS011;11628;51.072;3.712;2022-12-13T11:11:14;24.92;;;17.00;;
22924;SDS011;11628;51.072;3.712;2022-12-13T11:16:31;20.75;;;16.00;;
22924;SDS011;11628;51.072;3.712;2022-12-13T11:19:01;23.10;;;16.95;;
22924;SDS011;11628;51.072;3.712;2022-12-13T11:21:31;33.35;;;27.20;;
22924;SDS011;11628;51.072;3.712;2022-12-13T11:24:00;22.98;;;17.58;;
22924;SDS011;11628;51.072;3.712;2022-12-13T11:26:28;24.52;;;16.25;;
22924;SDS011;11628;51.072;3.712;2022-12-13T11:29:14;23.38;;;17.38;;
22924;SDS011;11628;51.072;3.712;2022-12-13T11:37:25;22.60;;;15.25;;
22924;SDS011;11628;51.072;3.712;2022-12-13T11:39:53;25.08;;;15.20;;
22924;SDS011;11628;51.072;3.712;2022-12-13T11:42:29;24.42;;;16.63;;
22924;SDS011;11628;51.072;3.712;2022-12-13T11:45:14;25.35;;;14.82;;
22924;SDS011;11628;51.072;3.712;2022-12-13T11:47:49;21.05;;;15.95;;
22924;SDS011;11628;51.072;3.712;2022-12-13T11:50:35;21.35;;;15.30;;
22924;SDS011;11628;51.072;3.712;2022-12-13T11:55:57;20.38;;;15.70;;
22924;SDS011;11628;51.072;3.712;2022-12-13T11:58:51;25.02;;;15.60;;
22924;SDS011;11628;51.072;3.712;2022-12-13T12:01:28;21.90;;;16.05;;
22924;SDS011;11628;51.072;3.712;2022-12-13T12:07:14;20.98;;;15.75;;
22924;SDS011;11628;51.072;3.712;2022-12-13T12:09:43;24.80;;;16.63;;
22924;SDS011;11628;51.072;3.712;2022-12-13T12:12:20;21.52;;;16.13;;
22924;SDS011;11628;51.072;3.712;2022-12-13T12:15:03;24.67;;;17.55;;
22924;SDS011;11628;51.072;3.712;2022-12-13T12:17:34;23.60;;;16.05;;
22924;SDS011;11628;51.072;3.712;2022-12-13T12:20:00;23.92;;;16.40;;
22924;SDS011;11628;51.072;3.712;2022-12-13T12:22:36;25.05;;;15.90;;
22924;SDS011;11628;51.072;3.712;2022-12-13T12:25:27;24.92;;;17.20;;
22924;SDS011;11628;51.072;3.712;2022-12-13T12:39:48;26.73;;;17.80;;
22924;SDS011;11628;51.072;3.712;2022-12-13T12:50:59;23.92;;;16.80;;
22924;SDS011;11628;51.072;3.712;2022-12-13T12:53:36;25.60;;;17.17;;
22924;SDS011;11628;51.072;3.712;2022-12-13T12:56:26;23.25;;;16.55;;
22924;SDS011;11628;51.072;3.712;2022-12-13T12:59:11;27.08;;;18.02;;
22924;SDS011;11628;51.072;3.712;2022-12-13T13:04:36;28.67;;;16.95;;
22924;SDS011;11628;51.072;3.712;2022-12-13T13:09:55;25.83;;;17.30;;
22924;SDS011;11628;51.072;3.712;2022-12-13T13:12:23;25.42;;;16.02;;
22924;SDS011;11628;51.072;3.712;2022-12-13T13:14:50;26.17;;;17.85;;
22924;SDS011;11628;51.072;3.712;2022-12-13T13:19:45;25.63;;;16.52;;
22924;SDS011;11628;51.072;3.712;2022-12-13T13:22:29;28.58;;;16.48;;
22924;SDS011;11628;51.072;3.712;2022-12-13T13:24:58;26.58;;;17.20;;
22924;SDS011;11628;51.072;3.712;2022-12-13T13:27:28;25.90;;;17.42;;
22924;SDS011;11628;51.072;3.712;2022-12-13T13:30:03;26.67;;;18.13;;
22924;SDS011;11628;51.072;3.712;2022-12-13T13:32:51;26.88;;;18.00;;
22924;SDS011;11628;51.072;3.712;2022-12-13T13:40:40;25.55;;;16.90;;
22924;SDS011;11628;51.072;3.712;2022-12-13T13:43:12;26.65;;;18.60;;
22924;SDS011;11628;51.072;3.712;2022-12-13T13:45:53;27.48;;;17.02;;
22924;SDS011;11628;51.072;3.712;2022-12-13T13:54:04;22.42;;;15.25;;
22924;SDS011;11628;51.072;3.712;2022-12-13T13:56:43;23.10;;;16.83;;
22924;SDS011;11628;51.072;3.712;2022-12-13T14:13:38;23.13;;;16.52;;
22924;SDS011;11628;51.072;3.712;2022-12-13T14:22:31;22.10;;;15.55;;
22924;SDS011;11628;51.072;3.712;2022-12-13T14:25:17;22.75;;;15.55;;
22924;SDS011;11628;51.072;3.712;2022-12-13T14:30:42;27.77;;;17.15;;
22924;SDS011;11628;51.072;3.712;2022-12-13T14:33:21;23.30;;;15.30;;
22924;SDS011;11628;51.072;3.712;2022-12-13T14:35:52;22.35;;;15.13;;
22924;SDS011;11628;51.072;3.712;2022-12-13T14:38:23;24.05;;;16.20;;
22924;SDS011;11628;51.072;3.712;2022-12-13T14:43:48;25.70;;;16.40;;
22924;SDS011;11628;51.072;3.712;2022-12-13T14:46:13;24.15;;;15.52;;
22924;SDS011;11628;51.072;3.712;2022-12-13T14:48:43;25.17;;;16.55;;
22924;SDS011;11628;51.072;3.712;2022-12-13T14:51:31;23.77;;;15.82;;
22924;SDS011;11628;51.072;3.712;2022-12-13T14:54:00;26.63;;;16.65;;
22924;SDS011;11628;51.072;3.712;2022-12-13T14:56:28;24.65;;;16.17;;
22924;SDS011;11628;51.072;3.712;2022-12-13T14:59:00;26.15;;;16.50;;
22924;SDS011;11628;51.072;3.712;2022-12-13T15:01:32;25.15;;;16.50;;
22924;SDS011;11628;51.072;3.712;2022-12-13T15:07:34;26.83;;;17.40;;
22924;SDS011;11628;51.072;3.712;2022-12-13T15:09:49;27.80;;;17.80;;
22924;SDS011;11628;51.072;3.712;2022-12-13T15:12:19;25.60;;;17.45;;
22924;SDS011;11628;51.072;3.712;2022-12-13T15:14:48;24.38;;;16.75;;
22924;SDS011;11628;51.072;3.712;2022-12-13T15:17:38;26.02;;;17.10;;
22924;SDS011;11628;51.072;3.712;2022-12-13T15:20:24;25.25;;;17.42;;
22924;SDS011;11628;51.072;3.712;2022-12-13T15:22:59;31.85;;;17.80;;
22924;SDS011;11628;51.072;3.712;2022-12-13T15:25:38;25.80;;;17.00;;
22924;SDS011;11628;51.072;3.712;2022-12-13T15:28:04;25.70;;;16.38;;
22924;SDS011;11628;51.072;3.712;2022-12-13T15:30:32;27.95;;;18.85;;
22924;SDS011;11628;51.072;3.712;2022-12-13T15:33:06;28.75;;;20.50;;
22924;SDS011;11628;51.072;3.712;2022-12-13T15:35:43;26.15;;;17.73;;
22924;SDS011;11628;51.072;3.712;2022-12-13T15:38:11;30.48;;;18.33;;
22924;SDS011;11628;51.072;3.712;2022-12-13T15:40:46;25.38;;;16.73;;
22924;SDS011;11628;51.072;3.712;2022-12-13T15:43:14;36.10;;;19.27;;
22924;SDS011;11628;51.072;3.712;2022-12-13T15:45:46;29.95;;;18.17;;
22924;SDS011;11628;51.072;3.712;2022-12-13T15:48:20;28.20;;;17.23;;
22924;SDS011;11628;51.072;3.712;2022-12-13T15:56:25;29.55;;;17.92;;
22924;SDS011;11628;51.072;3.712;2022-12-13T15:58:52;30.00;;;17.90;;
22924;SDS011;11628;51.072;3.712;2022-12-13T16:01:25;33.88;;;18.88;;
22924;SDS011;11628;51.072;3.712;2022-12-13T16:03:55;32.03;;;19.48;;
22924;SDS011;11628;51.072;3.712;2022-12-13T16:06:21;87.20;;;53.92;;
22924;SDS011;11628;51.072;3.712;2022-12-13T16:08:50;37.17;;;19.92;;
22924;SDS011;11628;51.072;3.712;2022-12-13T16:19:40;31.70;;;18.90;;
22924;SDS011;11628;51.072;3.712;2022-12-13T16:22:06;30.65;;;20.23;;
22924;SDS011;11628;51.072;3.712;2022-12-13T16:24:32;35.10;;;20.75;;
22924;SDS011;11628;51.072;3.712;2022-12-13T16:26:57;38.20;;;21.75;;
22924;SDS011;11628;51.072;3.712;2022-12-13T16:29:23;42.05;;;21.63;;
22924;SDS011;11628;51.072;3.712;2022-12-13T16:31:50;35.30;;;21.02;;
22924;SDS011;11628;51.072;3.712;2022-12-13T16:34:16;35.80;;;20.38;;
22924;SDS011;11628;51.072;3.712;2022-12-13T16:36:43;35.13;;;19.85;;
22924;SDS011;11628;51.072;3.712;2022-12-13T16:39:10;33.38;;;20.73;;
22924;SDS011;11628;51.072;3.712;2022-12-13T16:41:37;35.78;;;22.15;;
22924;SDS011;11628;51.072;3.712;2022-12-13T16:44:06;35.55;;;22.52;;
22924;SDS011;11628;51.072;3.712;2022-12-13T16:46:34;38.33;;;21.42;;
22924;SDS011;11628;51.072;3.712;2022-12-13T16:51:41;37.38;;;22.00;;
22924;SDS011;11628;51.072;3.712;2022-12-13T16:54:06;38.67;;;24.13;;
22924;SDS011;11628;51.072;3.712;2022-12-13T16:56:32;37.72;;;23.60;;
22924;SDS011;11628;51.072;3.712;2022-12-13T16:58:57;40.80;;;24.02;;
22924;SDS011;11628;51.072;3.712;2022-12-13T17:01:23;41.88;;;24.85;;